Time;durP1;ratioP1;P1;durP2;ratioP2;P2;SDS_P1;SDS_P2;PMS_P1;PMS_P2;Temp;Humidity;BMP_temperature;BMP_pressure;BME280_temperature;BME280_humidity;BME280_pressure;Samples;Min_cycle;Max_cycle;Signal;HPM_P1;HPM_P2
2021/04/23 00:01:32;;;;;;;3.77;3.47;;;;;;;;;;3577002;40;20406;-73
2021/04/23 00:04:00;;;;;;;5.13;4.60;;;;;;;;;;3575659;40;20483;-73
2021/04/23 00:06:27;;;;;;;4.00;3.60;;;;;;;;;;3574645;40;20372;-72
2021/04/23 00:08:54;;;;;;;5.05;4.20;;;;;;;;;;3576714;40;20376;-73
2021/04/23 00:11:23;;;;;;;4.40;4.00;;;;;;;;;;3575990;40;20391;-72
2021/04/23 00:13:50;;;;;;;4.93;4.43;;;;;;;;;;3567160;40;20376;-72
2021/04/23 00:16:17;;;;;;;5.13;4.72;;;;;;;;;;3573994;40;20415;-72
2021/04/23 00:18:43;;;;;;;4.45;3.97;;;;;;;;;;3560460;40;20423;-72
2021/04/23 00:21:11;;;;;;;5.55;4.22;;;;;;;;;;3576712;40;20390;-72
2021/04/23 00:23:37;;;;;;;4.00;3.60;;;;;;;;;;3576663;40;20740;-73
2021/04/23 00:26:05;;;;;;;4.40;3.55;;;;;;;;;;3576956;40;20641;-72
2021/04/23 00:28:32;;;;;;;3.80;3.30;;;;;;;;;;3576541;40;20402;-72
2021/04/23 00:31:02;;;;;;;3.55;3.22;;;;;;;;;;3576432;40;20415;-73
2021/04/23 00:33:28;;;;;;;3.27;3.00;;;;;;;;;;3576642;40;20593;-73
2021/04/23 00:35:54;;;;;;;3.33;3.03;;;;;;;;;;3573333;40;20423;-73
2021/04/23 00:38:22;;;;;;;3.50;3.10;;;;;;;;;;3573651;40;20375;-72
2021/04/23 00:40:50;;;;;;;3.47;2.90;;;;;;;;;;3576515;40;20384;-74
2021/04/23 00:43:17;;;;;;;3.88;3.20;;;;;;;;;;3573435;40;20393;-72
2021/04/23 00:45:44;;;;;;;3.90;3.30;;;;;;;;;;3575905;40;20493;-72
2021/04/23 00:48:11;;;;;;;3.33;3.03;;;;;;;;;;3563053;40;20407;-73
2021/04/23 00:50:40;;;;;;;3.50;3.20;;;;;;;;;;3572605;40;20669;-73
2021/04/23 00:53:07;;;;;;;3.60;3.30;;;;;;;;;;3570460;40;20405;-72
2021/04/23 00:55:34;;;;;;;3.60;3.30;;;;;;;;;;3570000;40;20449;-73
2021/04/23 00:58:00;;;;;;;3.40;3.15;;;;;;;;;;3571279;40;20645;-73
2021/04/23 01:00:27;;;;;;;4.03;3.55;;;;;;;;;;3573600;40;20440;-72
2021/04/23 01:02:53;;;;;;;3.20;2.97;;;;;;;;;;3576384;40;20407;-73
2021/04/23 01:05:25;;;;;;;3.70;3.10;;;;;;;;;;3572299;40;20399;-72
2021/04/23 01:07:51;;;;;;;3.50;3.20;;;;;;;;;;3572246;40;20772;-72
2021/04/23 01:10:18;;;;;;;4.15;3.45;;;;;;;;;;3575359;40;20392;-73
2021/04/23 01:12:45;;;;;;;4.32;3.92;;;;;;;;;;3569989;40;20419;-73
2021/04/23 01:15:12;;;;;;;4.10;3.38;;;;;;;;;;3573465;40;20397;-74
2021/04/23 01:17:38;;;;;;;4.18;3.83;;;;;;;;;;3572087;40;20411;-72
2021/04/23 01:20:05;;;;;;;3.85;3.55;;;;;;;;;;3574873;40;20374;-72
2021/04/23 01:22:32;;;;;;;4.47;4.07;;;;;;;;;;3566383;40;20794;-73
2021/04/23 01:24:59;;;;;;;3.88;3.50;;;12.00;99.90;;;;;;3573027;40;20489;-72
2021/04/23 01:27:25;;;;;;;4.20;3.80;;;9.50;99.90;;;;;;3576667;40;20383;-73
2021/04/23 01:29:51;;;;;;;4.35;3.95;;;9.40;99.90;;;;;;3573552;40;20397;-72
2021/04/23 01:32:17;;;;;;;5.10;4.60;;;;;;;;;;3576238;40;20435;-73
2021/04/23 01:34:45;;;;;;;4.97;4.30;;;;;;;;;;3576155;40;20404;-73
2021/04/23 01:37:13;;;;;;;4.73;4.33;;;;;;;;;;3575982;40;20749;-72
2021/04/23 01:39:41;;;;;;;5.32;4.82;;;;;;;;;;3566808;40;20399;-74
2021/04/23 01:42:08;;;;;;;4.88;4.47;;;;;;;;;;3575428;40;20794;-71
2021/04/23 01:44:35;;;;;;;5.88;5.28;;;;;;;;;;3576304;40;20391;-73
2021/04/23 01:47:01;;;;;;;5.10;4.60;;;;;;;;;;3570293;40;20389;-72
2021/04/23 01:49:28;;;;;;;5.63;5.00;;;;;;;;;;3574033;40;20716;-72
2021/04/23 01:51:56;;;;;;;5.80;4.93;;;;;;;;;;3572867;40;20427;-73
2021/04/23 01:54:23;;;;;;;5.28;4.78;;;;;;;;;;3575871;40;20478;-73
2021/04/23 01:56:51;;;;;;;4.57;4.10;;;;;;;;;;3573325;40;20848;-72
2021/04/23 01:59:17;;;;;;;4.35;4.05;;;;;;;;;;3571036;40;20422;-73
2021/04/23 02:01:44;;;;;;;5.47;4.53;;;;;;;;;;3571762;40;20486;-73
2021/04/23 02:04:11;;;;;;;4.75;4.35;;;;;;;;;;3572949;40;20410;-73
2021/04/23 02:06:37;;;;;;;4.95;4.55;;;;;;;;;;3562634;40;20400;-73
2021/04/23 02:09:04;;;;;;;4.55;3.90;;;;;;;;;;3576400;40;20387;-72
2021/04/23 02:11:31;;;;;;;4.20;3.80;;;;;;;;;;3573488;40;20374;-73
2021/04/23 02:13:58;;;;;;;5.15;4.43;;;;;;;;;;3570388;40;20388;-73
2021/04/23 02:16:24;;;;;;;4.88;4.45;;;;;;;;;;3575237;40;20419;-72
2021/04/23 02:18:53;;;;;;;5.57;4.70;;;;;;;;;;3575655;40;20384;-73
2021/04/23 02:21:19;;;;;;;4.90;4.40;;;;;;;;;;3575763;40;20470;-72
2021/04/23 02:23:46;;;;;;;4.97;4.47;;;;;;;;;;3575769;40;20388;-73
2021/04/23 02:26:13;;;;;;;5.05;4.65;;;;;;;;;;3575869;40;20384;-73
2021/04/23 02:28:39;;;;;;;5.13;4.35;;;;;;;;;;3575186;40;20383;-72
2021/04/23 02:31:08;;;;;;;5.80;5.30;;;;;;;;;;3575665;40;20397;-73
2021/04/23 02:33:34;;;;;;;4.75;4.25;;;;;;;;;;3575679;40;20403;-72
2021/04/23 02:36:00;;;;;;;5.80;5.30;;;;;;;;;;3575769;40;20501;-73
2021/04/23 02:38:28;;;;;;;5.07;4.57;;;;;;;;;;3569345;40;20402;-71
2021/04/23 02:40:54;;;;;;;5.00;4.60;;;;;;;;;;3575790;40;20380;-72
2021/04/23 02:43:22;;;;;;;5.20;4.70;;;;;;;;;;3575720;40;20376;-78
2021/04/23 02:45:50;;;;;;;5.15;4.65;;;;;;;;;;3575563;40;20396;-73
2021/04/23 02:48:17;;;;;;;5.03;4.63;;;;;;;;;;3575835;40;20372;-73
2021/04/23 02:50:45;;;;;;;4.68;4.28;;;;;;;;;;3572788;40;20410;-72
2021/04/23 02:53:12;;;;;;;5.28;4.88;;;;;;;;;;3551720;40;20499;-72
2021/04/23 02:55:38;;;;;;;5.95;4.68;;;;;;;;;;3575473;40;20403;-72
2021/04/23 02:58:05;;;;;;;4.60;4.20;;;;;;;;;;3567642;40;20403;-72
2021/04/23 03:00:32;;;;;;;4.70;4.30;;;;;;;;;;3577069;40;20461;-72
2021/04/23 03:02:59;;;;;;;6.13;5.47;;;;;;;;;;3568457;40;20391;-72
2021/04/23 03:05:26;;;;;;;6.60;5.18;;;;;;;;;;3576219;40;20414;-73
2021/04/23 03:07:53;;;;;;;4.95;4.55;;;;;;;;;;3567771;40;20396;-72
2021/04/23 03:10:24;;;;;;;5.70;4.60;;;;;;;;;;3577351;40;20384;-72
2021/04/23 03:12:50;;;;;;;4.32;3.92;;;;;;;;;;3570262;40;20371;-72
2021/04/23 03:15:17;;;;;;;5.03;4.53;;;;;;;;;;3575692;40;20501;-72
2021/04/23 03:17:43;;;;;;;5.00;4.50;;;;;;;;;;3577160;40;20649;-72
2021/04/23 03:20:13;;;;;;;4.55;4.15;;;;;;;;;;3577020;40;20465;-72
2021/04/23 03:22:41;;;;;;;4.10;3.70;;;;;;;;;;3577158;40;20380;-72
2021/04/23 03:25:07;;;;;;;4.72;4.32;;;;;;;;;;3574220;40;20395;-71
2021/04/23 03:27:34;;;;;;;4.75;4.35;;;;;;;;;;3577130;40;20637;-72
2021/04/23 03:30:00;;;;;;;4.53;4.13;;;;;;;;;;3576773;40;20383;-72
2021/04/23 03:32:27;;;;;;;4.65;4.20;;;;;;;;;;3576165;40;20406;-72
2021/04/23 03:34:53;;;;;;;5.18;4.78;;;;;;;;;;3576959;40;20485;-72
2021/04/23 03:37:19;;;;;;;4.40;4.10;;;;;;;;;;3576989;40;20424;-72
2021/04/23 03:39:46;;;;;;;4.93;4.53;;;;;;;;;;3577231;40;20384;-72
2021/04/23 03:42:13;;;;;;;4.82;4.30;;;;;;;;;;3576808;40;20408;-72
2021/04/23 03:44:39;;;;;;;4.68;4.28;;;;;;;;;;3577001;40;20384;-73
2021/04/23 03:47:05;;;;;;;5.47;4.90;;;;;;;;;;3576830;40;20753;-72
2021/04/23 03:49:31;;;;;;;4.65;4.25;;;;;;;;;;3573458;40;20386;-72
2021/04/23 03:51:57;;;;;;;6.63;4.68;;;;;;;;;;3573941;40;20481;-72
2021/04/23 03:54:24;;;;;;;4.57;4.13;;;;;;;;;;3576694;40;20427;-72
2021/04/23 03:56:51;;;;;;;4.88;4.47;;;;;;;;;;3576926;40;20431;-72
2021/04/23 03:59:18;;;;;;;4.60;4.20;;;;;;;;;;3576638;40;20449;-72
2021/04/23 04:01:44;;;;;;;5.20;4.78;;;;;;;;;;3562499;40;20497;-72
2021/04/23 04:04:10;;;;;;;4.80;4.40;;;;;;;;;;3573576;40;20400;-77
2021/04/23 04:06:36;;;;;;;5.15;4.38;;;;;;;;;;3575424;40;20412;-72
2021/04/23 04:09:03;;;;;;;5.85;5.35;;;;;;;;;;3575771;40;20436;-72
2021/04/23 04:11:29;;;;;;;5.10;4.70;;;;;;;;;;3574238;40;20380;-72
2021/04/23 04:13:57;;;;;;;5.35;4.85;;;;;;;;;;3572308;40;20402;-72
2021/04/23 04:16:23;;;;;;;5.00;4.60;;;;;;;;;;3574138;40;20481;-72
2021/04/23 04:18:49;;;;;;;4.95;4.55;;;;;;;;;;3575832;40;20410;-72
2021/04/23 04:21:15;;;;;;;4.70;4.30;;;;;;;;;;3567550;40;20406;-72
2021/04/23 04:23:42;;;;;;;4.72;4.32;;;;;;;;;;3576535;40;20386;-73
2021/04/23 04:26:08;;;;;;;4.90;4.40;;;;;;;;;;3576721;40;20388;-72
2021/04/23 04:28:34;;;;;;;4.82;4.40;;;;;;;;;;3575567;40;20394;-76
2021/04/23 04:31:01;;;;;;;4.70;4.30;;;;;;;;;;3576627;40;20768;-72
2021/04/23 04:33:28;;;;;;;4.60;4.20;;;;;;;;;;3575813;40;20387;-73
2021/04/23 04:35:54;;;;;;;5.97;4.70;;;;;;;;;;3576399;40;20407;-72
2021/04/23 04:38:20;;;;;;;4.60;3.92;;;;;;;;;;3575916;40;20427;-73
2021/04/23 04:40:48;;;;;;;4.80;4.40;;;;;;;;;;3576311;40;20388;-72
2021/04/23 04:43:15;;;;;;;5.18;4.78;;;;;;;;;;3562253;40;20412;-72
2021/04/23 04:45:42;;;;;;;4.85;4.45;;;;;;;;;;3574869;40;20747;-72
2021/04/23 04:48:10;;;;;;;5.65;5.10;;;;;;;;;;3576900;40;20757;-73
2021/04/23 04:50:38;;;;;;;5.47;4.97;;;;;;;;;;3575916;40;20384;-73
2021/04/23 04:53:06;;;;;;;5.60;5.10;;;;;;;;;;3572102;40;20398;-72
2021/04/23 04:55:33;;;;;;;5.28;4.78;;;;;;;;;;3575365;40;20392;-72
2021/04/23 04:58:00;;;;;;;4.90;4.40;;;;;;;;;;3576441;40;20386;-72
2021/04/23 05:00:27;;;;;;;4.05;3.65;;;;;;;;;;3576277;40;20372;-72
2021/04/23 05:02:53;;;;;;;3.97;3.17;;;;;;;;;;3576431;40;20399;-72
2021/04/23 05:05:21;;;;;;;4.10;3.00;;;;;;;;;;3568094;40;20484;-72
2021/04/23 05:07:47;;;;;;;4.15;3.63;;;;;;;;;;3565610;40;20394;-72
2021/04/23 05:10:14;;;;;;;4.47;3.40;;;;;;;;;;3571499;40;20373;-72
2021/04/23 05:12:40;;;;;;;3.30;2.50;;;;;;;;;;3567958;40;20384;-72
2021/04/23 05:15:08;;;;;;;3.40;3.10;;;;;;;;;;3562627;40;20413;-72
2021/04/23 05:17:34;;;;;;;3.20;2.90;;;;;;;;;;3566611;40;20370;-72
2021/04/23 05:20:00;;;;;;;3.30;2.55;;;;;;;;;;3566498;40;20382;-72
2021/04/23 05:22:27;;;;;;;3.60;2.90;;;;;;;;;;3566573;40;20755;-72
2021/04/23 05:24:54;;;;;;;3.03;2.83;;;;;;;;;;3565803;40;20385;-72
2021/04/23 05:27:20;;;;;;;4.00;3.17;;;;;;;;;;3567532;40;20382;-72
2021/04/23 05:29:46;;;;;;;3.30;2.50;;;;;;;;;;3566381;40;20472;-73
2021/04/23 05:32:12;;;;;;;4.65;2.60;;;;;;;;;;3568480;40;20440;-72
2021/04/23 05:34:38;;;;;;;3.03;2.40;;;;;;;;;;3573186;40;20494;-72
2021/04/23 05:37:09;;;;;;;3.75;2.58;;;;;;;;;;3558767;40;20410;-72
2021/04/23 05:39:36;;;;;;;4.28;2.95;;;;;;;;;;3559406;40;20404;-72
2021/04/23 05:42:02;;;;;;;4.07;2.70;;;;;;;;;;3561442;40;20729;-72
2021/04/23 05:44:28;;;;;;;3.17;2.60;;;;;;;;;;3563117;40;20395;-72
2021/04/23 05:46:55;;;;;;;2.65;2.42;;;;;;;;;;3561174;40;20407;-72
2021/04/23 05:49:21;;;;;;;3.93;2.80;;;;;;;;;;3561560;40;20425;-72
2021/04/23 05:51:47;;;;;;;2.85;2.33;;;;;;;;;;3552652;40;20739;-72
2021/04/23 05:54:13;;;;;;;4.15;2.95;;;;;;;;;;3564926;40;20400;-70
2021/04/23 05:56:40;;;;;;;3.10;2.60;;;;;;;;;;3565553;40;20414;-70
2021/04/23 05:59:07;;;;;;;3.13;2.58;;;;;;;;;;3556783;40;20409;-71
2021/04/23 06:01:33;;;;;;;3.67;2.70;;;;;;;;;;3566245;40;20425;-70
2021/04/23 06:03:59;;;;;;;2.92;2.40;;;;;;;;;;3567109;40;20424;-69
2021/04/23 06:06:25;;;;;;;3.13;2.50;;;;;;;;;;3576433;40;20847;-69
2021/04/23 06:08:51;;;;;;;3.75;2.10;;;;;;;;;;3574943;40;20451;-70
2021/04/23 06:11:18;;;;;;;2.90;2.40;;;;;;;;;;3575841;40;20396;-70
2021/04/23 06:13:46;;;;;;;3.85;2.80;;;;;;;;;;3576170;40;20390;-69
2021/04/23 06:16:12;;;;;;;5.05;2.90;;;;;;;;;;3576048;40;20463;-70
2021/04/23 06:18:38;;;;;;;3.97;2.67;;;;;;;;;;3566285;40;20648;-70
2021/04/23 06:21:06;;;;;;;4.13;3.17;;;;;;;;;;3571886;40;20423;-73
2021/04/23 06:23:32;;;;;;;3.42;2.53;;;;;;;;;;3576110;40;20372;-70
2021/04/23 06:25:58;;;;;;;3.37;2.37;;;;;;;;;;3576057;40;20458;-70
2021/04/23 06:28:24;;;;;;;3.30;2.53;;;;;;;;;;3574068;40;20408;-69
2021/04/23 06:30:52;;;;;;;4.13;2.60;;;;;;;;;;3567246;40;20397;-72
2021/04/23 06:33:20;;;;;;;4.82;3.28;;;;;;;;;;3572775;40;20407;-72
2021/04/23 06:35:47;;;;;;;4.50;3.70;;;;;;;;;;3577299;40;20411;-72
2021/04/23 06:38:13;;;;;;;7.70;5.63;;;;;;;;;;3577490;40;20388;-70
2021/04/23 06:40:40;;;;;;;7.60;6.70;;;;;;;;;;3577367;40;20388;-70
2021/04/23 06:43:06;;;;;;;10.05;7.57;;;;;;;;;;3577443;40;20390;-69
2021/04/23 06:45:33;;;;;;;8.45;6.78;;;12.20;99.90;;;;;;3576276;40;20431;-69
2021/04/23 06:48:00;;;;;;;8.63;7.65;;;;;;;;;;3577342;40;20384;-70
2021/04/23 06:50:27;;;;;;;9.77;8.38;;;;;;;;;;3576480;40;20400;-72
2021/04/23 06:52:53;;;;;;;9.48;8.57;;;;;;;;;;3577238;40;20410;-72
2021/04/23 06:55:20;;;;;;;8.88;7.97;;;;;;;;;;3577276;40;20649;-73
2021/04/23 06:57:46;;;;;;;8.55;7.68;;;;;;;;;;3576886;40;20388;-72
2021/04/23 07:00:14;;;;;;;10.88;8.50;;;;;;;;;;3577158;40;20395;-72
2021/04/23 07:02:40;;;;;;;12.15;8.90;;;;;;;;;;3561421;40;20415;-73
2021/04/23 07:05:08;;;;;;;8.95;7.78;;;;;;;;;;3576868;40;20426;-73
2021/04/23 07:07:35;;;;;;;8.85;7.95;;;;;;;;;;3569928;40;20394;-73
2021/04/23 07:10:01;;;;;;;11.38;9.07;;;;;;;;;;3577177;40;20383;-72
2021/04/23 07:12:27;;;;;;;10.52;8.38;;;;;;;;;;3576940;40;20388;-73
2021/04/23 07:14:53;;;;;;;9.57;8.32;;;;;;;;;;3575304;40;20703;-72
2021/04/23 07:17:20;;;;;;;11.30;9.13;;;;;;;;;;3576197;40;20452;-73
2021/04/23 07:19:47;;;;;;;11.48;9.93;;;;;;;;;;3575288;40;20378;-72
2021/04/23 07:22:15;;;;;;;12.32;10.65;;;;;;;;;;3577036;40;20400;-73
2021/04/23 07:24:42;;;;;;;16.13;11.67;;;;;;;;;;3577137;40;20388;-72
2021/04/23 07:27:08;;;;;;;14.02;10.30;;;;;;;;;;3575336;40;20757;-72
2021/04/23 07:29:34;;;;;;;15.77;12.60;;;;;;;;;;3577197;40;20421;-73
2021/04/23 07:32:00;;;;;;;15.07;12.63;;;;;;;;;;3579886;40;20657;-72
2021/04/23 07:34:27;;;;;;;16.58;13.63;;;;;;;;;;3567632;40;20392;-72
2021/04/23 07:36:53;;;;;;;17.95;14.75;;;;;;;;;;3572894;40;20386;-72
2021/04/23 07:39:26;;;;;;;18.38;13.77;;;;;;;;;;3570873;40;20375;-73
2021/04/23 07:41:53;;;;;;;14.25;12.15;;;;;;;;;;3567679;40;20395;-72
2021/04/23 07:44:19;;;;;;;14.50;11.43;;;;;;;;;;3577358;40;20376;-72
2021/04/23 07:46:46;;;;;;;15.82;12.60;;;;;;;;;;3575986;40;20407;-72
2021/04/23 07:49:12;;;;;;;14.32;12.73;;;;;;;;;;3576888;40;20391;-72
2021/04/23 07:51:38;;;;;;;22.17;18.02;;;;;;;;;;3576303;40;20765;-73
2021/04/23 07:54:06;;;;;;;22.67;19.95;;;;;;;;;;3576978;40;20424;-72
2021/04/23 07:56:33;;;;;;;17.15;15.35;;;;;;;;;;3577220;40;20404;-72
2021/04/23 07:59:00;;;;;;;21.42;16.02;;;;;;;;;;3569824;40;20385;-72
2021/04/23 08:01:26;;;;;;;24.73;20.95;;;;;;;;;;3573430;40;20387;-72
2021/04/23 08:03:52;;;;;;;27.10;22.88;;;;;;;;;;3566049;40;20408;-72
2021/04/23 08:06:18;;;;;;;26.15;23.35;;;;;;;;;;3576805;40;20469;-72
2021/04/23 08:08:45;;;;;;;24.55;21.85;;;;;;;;;;3577035;40;20705;-72
2021/04/23 08:11:11;;;;;;;26.40;23.52;;;;;;;;;;3575706;40;20396;-72
2021/04/23 08:13:38;;;;;;;26.42;23.20;;;;;;;;;;3570112;40;20386;-70
2021/04/23 08:16:04;;;;;;;29.10;23.13;;;;;;;;;;3577179;40;20693;-69
2021/04/23 08:18:34;;;;;;;25.30;22.40;;;;;;;;;;3576711;40;20388;-70
2021/04/23 08:21:01;;;;;;;26.67;23.60;;;;;;;;;;3575919;40;20414;-70
2021/04/23 08:23:27;;;;;;;26.17;23.20;;;;;;;;;;3569872;40;20435;-69
2021/04/23 08:25:56;;;;;;;22.40;20.05;;;12.30;99.90;;;;;;3577009;40;20386;-70
2021/04/23 08:28:23;;;;;;;24.55;21.90;;;;;;;;;;3576760;40;20387;-70
2021/04/23 08:30:50;;;;;;;25.05;22.45;;;;;;;;;;3573009;40;20447;-70
2021/04/23 08:33:16;;;;;;;25.20;22.50;;;;;;;;;;3574040;40;20404;-70
2021/04/23 08:35:42;;;;;;;22.98;20.70;;;16.50;94.20;;;;;;3577141;40;20749;-70
2021/04/23 08:38:09;;;;;;;28.77;24.30;;;;;;;;;;3576830;40;20438;-70
2021/04/23 08:40:35;;;;;;;24.75;22.15;;;16.90;93.80;;;;;;3576960;40;20404;-70
2021/04/23 08:43:02;;;;;;;26.10;23.40;;;17.30;93.40;;;;;;3576829;40;20391;-70
2021/04/23 08:45:28;;;;;;;28.67;24.83;;;17.40;93.50;;;;;;3568734;40;20441;-70
2021/04/23 08:47:55;;;;;;;26.90;23.27;;;17.20;93.90;;;;;;3563312;40;20404;-70
2021/04/23 08:50:22;;;;;;;27.10;23.85;;;;;;;;;;3564450;40;20411;-71
2021/04/23 08:52:49;;;;;;;28.70;25.67;;;;;;;;;;3567022;40;20742;-71
2021/04/23 08:55:17;;;;;;;27.02;24.13;;;;;;;;;;3576468;40;20399;-69
2021/04/23 08:57:43;;;;;;;28.33;25.35;;;17.40;92.80;;;;;;3576448;40;20457;-70
2021/04/23 09:00:11;;;;;;;30.00;26.80;;;17.40;94.00;;;;;;3571326;40;20385;-70
2021/04/23 09:02:38;;;;;;;30.77;27.45;;;17.60;92.60;;;;;;3565658;40;20415;-70
2021/04/23 09:05:06;;;;;;;33.40;27.27;;;17.30;92.40;;;;;;3576235;40;20785;-70
2021/04/23 09:07:32;;;;;;;29.73;26.45;;;17.30;92.40;;;;;;3576368;40;20435;-70
2021/04/23 09:10:06;;;;;;;27.07;24.27;;;17.50;92.20;;;;;;3576704;40;20404;-70
2021/04/23 09:12:32;;;;;;;30.52;27.42;;;;;;;;;;3576469;40;20403;-70
2021/04/23 09:15:01;;;;;;;28.35;25.42;;;;;;;;;;3576475;40;20402;-71
2021/04/23 09:17:29;;;;;;;31.38;28.08;;;17.80;92.10;;;;;;3566932;40;20457;-70
2021/04/23 09:19:57;;;;;;;30.75;25.77;;;18.10;91.30;;;;;;3569244;40;20386;-71
2021/04/23 09:22:26;;;;;;;25.63;22.83;;;18.00;91.30;;;;;;3572399;40;20384;-69
2021/04/23 09:25:01;;;;;;;25.02;22.33;;;18.10;89.60;;;;;;3573389;40;20375;-70
2021/04/23 09:27:29;;;;;;;27.17;24.30;;;;;;;;;;3566565;40;20463;-70
2021/04/23 09:29:56;;;;;;;29.00;25.50;;;;;;;;;;3566411;40;20885;-70
2021/04/23 09:32:23;;;;;;;27.48;24.52;;;;;;;;;;3576412;40;20423;-70
2021/04/23 09:34:50;;;;;;;26.85;23.98;;;;;;;;;;3576437;40;20384;-69
2021/04/23 09:37:18;;;;;;;28.58;25.48;;;;;;;;;;3575217;40;20400;-70
2021/04/23 09:39:46;;;;;;;26.35;23.55;;;;;;;;;;3576416;40;20381;-70
2021/04/23 09:42:12;;;;;;;27.30;24.33;;;;;;;;;;3574694;40;20392;-73
2021/04/23 09:44:39;;;;;;;25.65;23.00;;;;;;;;;;3571386;40;20384;-69
2021/04/23 09:47:08;;;;;;;25.13;22.05;;;;;;;;;;3575704;40;20372;-70
2021/04/23 09:49:35;;;;;;;23.27;19.90;;;;;;;;;;3570633;40;20388;-70
2021/04/23 09:52:02;;;;;;;22.88;20.48;;;;;;;;;;3583203;40;20375;-70
2021/04/23 09:54:29;;;;;;;21.27;19.08;;;;;;;;;;3569736;40;20380;-70
2021/04/23 09:56:57;;;;;;;21.38;19.08;;;;;;;;;;3570179;40;20402;-69
2021/04/23 09:59:25;;;;;;;22.20;19.92;;;;;;;;;;3573375;40;20394;-70
2021/04/23 10:01:52;;;;;;;21.10;18.42;;;;;;;;;;3571979;40;20424;-70
2021/04/23 10:04:26;;;;;;;19.40;17.23;;;;;;;;;;3576597;40;21087;-69
2021/04/23 10:07:07;;;;;;;20.88;16.58;;;;;;;;;;3573063;40;20381;-69
2021/04/23 10:09:33;;;;;;;18.02;16.20;;;;;;;;;;3575893;40;20404;-70
2021/04/23 10:12:00;;;;;;;18.67;16.77;;;;;;;;;;3574507;40;20436;-71
2021/04/23 10:14:26;;;;;;;19.97;17.50;;;;;;;;;;3574257;40;20405;-70
2021/04/23 10:16:58;;;;;;;16.35;14.65;;;;;;;;;;3575887;40;20767;-70
2021/04/23 10:19:25;;;;;;;19.37;17.20;;;;;;;;;;3573753;40;20372;-70
2021/04/23 10:21:52;;;;;;;18.63;16.63;;;;;;;;;;3577687;40;20383;-70
2021/04/23 10:24:20;;;;;;;18.23;16.17;;;;;;;;;;3573401;40;20393;-70
2021/04/23 10:26:46;;;;;;;18.05;16.25;;;;;;;;;;3574596;40;20672;-70
2021/04/23 10:29:13;;;;;;;19.45;17.45;;;;;;;;;;3577610;40;20427;-70
2021/04/23 10:31:40;;;;;;;19.42;17.52;;;;;;;;;;3577671;40;20850;-70
2021/04/23 10:34:08;;;;;;;21.08;18.83;;;;;;;;;;3571354;40;20384;-71
2021/04/23 10:36:35;;;;;;;18.87;16.97;;;20.00;78.30;;;;;;3577671;40;20463;-70
2021/04/23 10:39:01;;;;;;;18.25;16.38;;;;;;;;;;3576839;40;20395;-70
2021/04/23 10:41:33;;;;;;;19.00;17.00;;;;;;;;;;3577784;40;20396;-70
2021/04/23 10:44:00;;;;;;;18.75;16.85;;;;;;;;;;3577520;40;20543;-70
2021/04/23 10:46:28;;;;;;;20.13;17.95;;;;;;;;;;3577396;40;20384;-70
2021/04/23 10:49:02;;;;;;;19.42;17.52;;;;;;;;;;3576131;40;20387;-70
2021/04/23 10:51:29;;;;;;;19.65;17.10;;;;;;;;;;3574568;40;20515;-70
2021/04/23 10:54:04;;;;;;;20.30;18.20;;;;;;;;;;3575369;40;20842;-69
2021/04/23 10:56:32;;;;;;;19.45;17.42;;;;;;;;;;3572869;40;20661;-70
2021/04/23 10:58:59;;;;;;;21.20;18.90;;;;;;;;;;3575824;40;21051;-70
2021/04/23 11:01:28;;;;;;;20.45;18.42;;;;;;;;;;3574544;40;20391;-70
2021/04/23 11:04:00;;;;;;;21.95;19.75;;;;;;;;;;3571864;40;20920;-70
2021/04/23 11:06:28;;;;;;;21.60;19.40;;;20.20;78.30;;;;;;3557787;40;20398;-71
2021/04/23 11:09:06;;;;;;;22.23;19.92;;;20.20;76.10;;;;;;3572324;40;20478;-70
2021/04/23 11:11:33;;;;;;;21.38;19.27;;;;;;;;;;3575104;40;20387;-70
2021/04/23 11:14:14;;;;;;;20.52;18.50;;;;;;;;;;3575645;40;20380;-70
2021/04/23 11:16:41;;;;;;;18.73;16.83;;;;;;;;;;3562848;40;20410;-70
2021/04/23 11:19:31;;;;;;;21.63;19.42;;;;;;;;;;3571999;40;20874;-71
2021/04/23 11:22:03;;;;;;;19.17;17.33;;;;;;;;;;3576304;40;20364;-70
2021/04/23 11:24:29;;;;;;;17.83;16.02;;;20.20;76.60;;;;;;3571949;40;20742;-70
2021/04/23 11:27:06;;;;;;;16.50;14.88;;;;;;;;;;3566971;40;20398;-70
2021/04/23 11:29:34;;;;;;;19.63;17.63;;;;;;;;;;3571353;40;20644;-70
2021/04/23 11:32:14;;;;;;;19.80;17.90;;;;;;;;;;3575558;40;20848;-70
2021/04/23 11:34:42;;;;;;;20.50;18.50;;;;;;;;;;3571220;40;20437;-70
2021/04/23 11:37:09;;;;;;;23.33;21.02;;;;;;;;;;3573809;40;20415;-70
2021/04/23 11:39:45;;;;;;;22.08;19.90;;;;;;;;;;3575893;40;20777;-70
2021/04/23 11:42:14;;;;;;;21.38;19.27;;;;;;;;;;3573980;40;20368;-72
2021/04/23 11:44:46;;;;;;;21.65;19.45;;;;;;;;;;3575908;40;20458;-70
2021/04/23 11:47:13;;;;;;;18.65;16.67;;;;;;;;;;3576498;40;20392;-72
2021/04/23 11:49:40;;;;;;;19.38;17.20;;;;;;;;;;3576721;40;20380;-70
2021/04/23 11:52:07;;;;;;;20.83;18.67;;;;;;;;;;3574100;40;20386;-70
2021/04/23 11:54:35;;;;;;;18.80;17.00;;;;;;;;;;3574116;40;20419;-70
2021/04/23 11:57:02;;;;;;;20.90;18.80;;;;;;;;;;3576231;40;20404;-70
2021/04/23 11:59:29;;;;;;;19.60;17.75;;;;;;;;;;3575694;40;20535;-70
2021/04/23 12:01:55;;;;;;;21.98;18.90;;;;;;;;;;3575018;40;20536;-72
2021/04/23 12:04:39;;;;;;;20.08;18.10;;;;;;;;;;3574515;40;20418;-70
2021/04/23 12:07:07;;;;;;;19.37;17.47;;;;;;;;;;3567755;40;20458;-68
2021/04/23 12:09:33;;;;;;;20.27;18.23;;;;;;;;;;3577405;40;20380;-69
2021/04/23 12:12:06;;;;;;;20.30;18.30;;;22.00;73.00;;;;;;3573358;40;20416;-69
2021/04/23 12:14:45;;;;;;;20.30;18.30;;;22.90;67.80;;;;;;3574292;40;20886;-69
2021/04/23 12:17:12;;;;;;;21.65;19.48;;;;;;;;;;3573944;40;20781;-68
2021/04/23 12:19:39;;;;;;;20.65;18.58;;;;;;;;;;3572185;40;20378;-68
2021/04/23 12:22:05;;;;;;;18.45;16.55;;;;;;;;;;3577105;40;20808;-68
2021/04/23 12:24:33;;;;;;;17.48;15.57;;;;;;;;;;3573196;40;20824;-68
2021/04/23 12:26:59;;;;;;;18.65;16.85;;;22.70;69.50;;;;;;3573044;40;20388;-68
2021/04/23 12:29:25;;;;;;;19.52;17.58;;;;;;;;;;3573375;40;20395;-68
2021/04/23 12:31:52;;;;;;;19.02;17.23;;;;;;;;;;3570667;40;20436;-68
2021/04/23 12:34:18;;;;;;;18.98;17.08;;;;;;;;;;3577287;40;20372;-68
2021/04/23 12:36:45;;;;;;;16.40;14.73;;;;;;;;;;3576706;40;20435;-69
2021/04/23 12:39:12;;;;;;;21.80;19.50;;;;;;;;;;3569625;40;20431;-68
2021/04/23 12:41:40;;;;;;;19.65;17.75;;;;;;;;;;3577149;40;20388;-68
2021/04/23 12:44:08;;;;;;;20.45;18.55;;;;;;;;;;3576725;40;20404;-68
2021/04/23 12:46:36;;;;;;;21.27;19.25;;;23.30;64.70;;;;;;3577033;40;20759;-68
2021/04/23 12:49:04;;;;;;;17.45;15.80;;;;;;;;;;3576763;40;20719;-69
2021/04/23 12:51:31;;;;;;;20.27;18.17;;;;;;;;;;3577100;40;20376;-68
2021/04/23 12:53:58;;;;;;;22.15;19.88;;;;;;;;;;3576834;40;20391;-68
2021/04/23 12:56:25;;;;;;;20.00;17.20;;;;;;;;;;3576873;40;20402;-68
2021/04/23 12:58:52;;;;;;;20.70;18.55;;;;;;;;;;3576548;40;20378;-68
2021/04/23 13:01:19;;;;;;;20.23;18.13;;;;;;;;;;3574417;40;20402;-68
2021/04/23 13:03:47;;;;;;;17.63;15.95;;;;;;;;;;3573132;40;20400;-68
2021/04/23 13:06:22;;;;;;;21.20;19.10;;;;;;;;;;3569922;40;20382;-68
2021/04/23 13:08:57;;;;;;;17.67;16.02;;;;;;;;;;3577013;40;20657;-68
2021/04/23 13:11:23;;;;;;;19.60;17.17;;;;;;;;;;3576387;40;20649;-68
2021/04/23 13:13:49;;;;;;;18.60;16.77;;;;;;;;;;3576884;40;20383;-68
2021/04/23 13:16:16;;;;;;;16.27;14.63;;;;;;;;;;3576724;40;20781;-69
2021/04/23 13:18:44;;;;;;;16.90;15.38;;;;;;;;;;3569822;40;20889;-68
2021/04/23 13:21:11;;;;;;;18.40;16.52;;;;;;;;;;3576823;40;20427;-68
2021/04/23 13:23:38;;;;;;;18.10;16.38;;;;;;;;;;3575458;40;20391;-68
2021/04/23 13:26:05;;;;;;;16.50;14.90;;;;;;;;;;3576773;40;20383;-71
2021/04/23 13:28:32;;;;;;;15.60;14.05;;;;;;;;;;3576564;40;20466;-69
2021/04/23 13:30:59;;;;;;;17.85;16.05;;;;;;;;;;3576756;40;20652;-69
2021/04/23 13:33:28;;;;;;;18.98;17.08;;;;;;;;;;3576405;40;20780;-68
2021/04/23 13:36:03;;;;;;;17.25;15.63;;;;;;;;;;3576452;40;20522;-68
2021/04/23 13:38:32;;;;;;;19.30;17.35;;;;;;;;;;3573185;40;20487;-69
2021/04/23 13:41:13;;;;;;;16.70;15.20;;;;;;;;;;3576667;40;20716;-68
2021/04/23 13:43:40;;;;;;;14.60;13.10;;;;;;;;;;3568521;40;20551;-68
2021/04/23 13:46:08;;;;;;;16.20;14.70;;;;;;;;;;3570163;40;20797;-68
2021/04/23 13:48:36;;;;;;;13.35;12.05;;;;;;;;;;3575768;40;20372;-69
2021/04/23 13:51:04;;;;;;;15.80;14.40;;;;;;;;;;3576638;40;20380;-68
2021/04/23 13:53:34;;;;;;;15.50;14.00;;;;;;;;;;3576626;40;20390;-68
2021/04/23 13:56:02;;;;;;;15.82;14.32;;;;;;;;;;3576534;40;20789;-68
2021/04/23 13:58:28;;;;;;;12.95;11.65;;;;;;;;;;3575600;40;20392;-68
2021/04/23 14:00:56;;;;;;;14.57;13.18;;;;;;;;;;3570697;40;20447;-68
2021/04/23 14:03:22;;;;;;;14.82;13.38;;;;;;;;;;3576341;40;20408;-70
2021/04/23 14:05:50;;;;;;;12.50;11.30;;;;;;;;;;3576852;40;20670;-68
2021/04/23 14:08:16;;;;;;;15.30;13.80;;;;;;;;;;3576565;40;20391;-69
2021/04/23 14:10:43;;;;;;;14.63;13.30;;;;;;;;;;3576265;40;20391;-68
2021/04/23 14:13:09;;;;;;;15.88;14.30;;;;;;;;;;3576006;40;20376;-68
2021/04/23 14:15:35;;;;;;;13.38;12.10;;;;;;;;;;3572249;40;20398;-68
2021/04/23 14:18:01;;;;;;;15.27;13.63;;;;;;;;;;3573777;40;20391;-69
2021/04/23 14:20:28;;;;;;;14.98;13.57;;;;;;;;;;3576445;40;20380;-68